sensor_id;sensor_type;location;lat;lon;timestamp;temperature;humidity
13148;DHT22;6639;50.956;4.242;2023-04-05T00:02:26;12.70;91.80
13148;DHT22;6639;50.956;4.242;2023-04-05T00:04:54;12.70;91.90
13148;DHT22;6639;50.956;4.242;2023-04-05T00:07:23;12.70;91.70
13148;DHT22;6639;50.956;4.242;2023-04-05T00:09:51;12.80;91.70
13148;DHT22;6639;50.956;4.242;2023-04-05T00:12:18;12.80;91.60
13148;DHT22;6639;50.956;4.242;2023-04-05T00:14:45;12.80;91.60
13148;DHT22;6639;50.956;4.242;2023-04-05T00:17:12;12.90;91.60
13148;DHT22;6639;50.956;4.242;2023-04-05T00:19:39;12.80;91.70
13148;DHT22;6639;50.956;4.242;2023-04-05T00:22:07;12.80;91.70
13148;DHT22;6639;50.956;4.242;2023-04-05T00:24:37;12.70;91.80
13148;DHT22;6639;50.956;4.242;2023-04-05T00:27:06;12.50;91.80
13148;DHT22;6639;50.956;4.242;2023-04-05T00:29:33;12.50;91.80
13148;DHT22;6639;50.956;4.242;2023-04-05T00:32:00;12.50;91.70
13148;DHT22;6639;50.956;4.242;2023-04-05T00:34:27;12.60;91.60
13148;DHT22;6639;50.956;4.242;2023-04-05T00:36:54;12.50;91.70
13148;DHT22;6639;50.956;4.242;2023-04-05T00:39:21;12.50;91.50
13148;DHT22;6639;50.956;4.242;2023-04-05T00:41:49;12.60;91.40
13148;DHT22;6639;50.956;4.242;2023-04-05T00:44:16;12.60;91.40
13148;DHT22;6639;50.956;4.242;2023-04-05T00:46:43;12.60;91.40
13148;DHT22;6639;50.956;4.242;2023-04-05T00:49:10;12.60;91.40
13148;DHT22;6639;50.956;4.242;2023-04-05T00:51:37;12.50;91.30
13148;DHT22;6639;50.956;4.242;2023-04-05T00:54:04;12.40;91.60
13148;DHT22;6639;50.956;4.242;2023-04-05T00:56:32;12.50;91.70
13148;DHT22;6639;50.956;4.242;2023-04-05T00:59:00;12.20;91.60
13148;DHT22;6639;50.956;4.242;2023-04-05T01:01:27;12.20;91.70
13148;DHT22;6639;50.956;4.242;2023-04-05T01:03:58;12.20;92.20
13148;DHT22;6639;50.956;4.242;2023-04-05T01:06:58;12.10;91.90
13148;DHT22;6639;50.956;4.242;2023-04-05T01:09:33;11.90;92.10
13148;DHT22;6639;50.956;4.242;2023-04-05T01:12:06;11.90;92.30
13148;DHT22;6639;50.956;4.242;2023-04-05T01:14:44;11.80;92.30
13148;DHT22;6639;50.956;4.242;2023-04-05T01:17:12;11.70;92.40
13148;DHT22;6639;50.956;4.242;2023-04-05T01:19:39;11.60;92.60
13148;DHT22;6639;50.956;4.242;2023-04-05T01:25:26;11.50;93.30
13148;DHT22;6639;50.956;4.242;2023-04-05T01:28:22;11.70;92.80
13148;DHT22;6639;50.956;4.242;2023-04-05T01:31:05;11.80;92.60
13148;DHT22;6639;50.956;4.242;2023-04-05T01:33:35;11.50;92.50
13148;DHT22;6639;50.956;4.242;2023-04-05T01:36:07;11.50;93.20
13148;DHT22;6639;50.956;4.242;2023-04-05T01:38:38;11.30;93.10
13148;DHT22;6639;50.956;4.242;2023-04-05T01:41:06;11.40;92.90
13148;DHT22;6639;50.956;4.242;2023-04-05T01:43:33;11.60;92.70
13148;DHT22;6639;50.956;4.242;2023-04-05T01:46:01;11.70;92.70
13148;DHT22;6639;50.956;4.242;2023-04-05T01:48:28;11.40;92.80
13148;DHT22;6639;50.956;4.242;2023-04-05T01:50:55;11.50;92.80
13148;DHT22;6639;50.956;4.242;2023-04-05T01:53:22;11.50;92.80
13148;DHT22;6639;50.956;4.242;2023-04-05T01:55:49;11.50;92.90
13148;DHT22;6639;50.956;4.242;2023-04-05T01:58:16;11.40;92.90
13148;DHT22;6639;50.956;4.242;2023-04-05T02:00:43;11.20;92.70
13148;DHT22;6639;50.956;4.242;2023-04-05T02:03:11;11.30;92.80
13148;DHT22;6639;50.956;4.242;2023-04-05T02:05:38;11.30;92.90
13148;DHT22;6639;50.956;4.242;2023-04-05T02:08:05;11.20;93.10
13148;DHT22;6639;50.956;4.242;2023-04-05T02:10:32;11.20;93.10
13148;DHT22;6639;50.956;4.242;2023-04-05T02:12:58;11.00;93.30
13148;DHT22;6639;50.956;4.242;2023-04-05T02:15:26;11.00;93.10
13148;DHT22;6639;50.956;4.242;2023-04-05T02:17:52;11.00;93.00
13148;DHT22;6639;50.956;4.242;2023-04-05T02:20:21;10.90;93.10
13148;DHT22;6639;50.956;4.242;2023-04-05T02:22:50;10.80;93.20
13148;DHT22;6639;50.956;4.242;2023-04-05T02:25:18;10.70;93.20
13148;DHT22;6639;50.956;4.242;2023-04-05T02:27:45;10.90;93.10
13148;DHT22;6639;50.956;4.242;2023-04-05T02:30:12;10.80;93.20
13148;DHT22;6639;50.956;4.242;2023-04-05T02:32:40;10.90;93.10
13148;DHT22;6639;50.956;4.242;2023-04-05T02:35:08;10.80;93.30
13148;DHT22;6639;50.956;4.242;2023-04-05T02:37:37;10.90;93.10
13148;DHT22;6639;50.956;4.242;2023-04-05T02:40:05;11.10;92.70
13148;DHT22;6639;50.956;4.242;2023-04-05T02:42:34;11.10;92.70
13148;DHT22;6639;50.956;4.242;2023-04-05T02:45:01;10.90;92.70
13148;DHT22;6639;50.956;4.242;2023-04-05T02:47:28;10.60;93.00
13148;DHT22;6639;50.956;4.242;2023-04-05T02:49:54;10.60;93.40
13148;DHT22;6639;50.956;4.242;2023-04-05T02:52:21;10.50;93.40
13148;DHT22;6639;50.956;4.242;2023-04-05T02:54:49;10.50;93.40
13148;DHT22;6639;50.956;4.242;2023-04-05T02:57:17;10.60;93.50
13148;DHT22;6639;50.956;4.242;2023-04-05T02:59:44;10.70;93.40
13148;DHT22;6639;50.956;4.242;2023-04-05T03:02:11;10.50;93.50
13148;DHT22;6639;50.956;4.242;2023-04-05T03:04:38;10.40;93.50
13148;DHT22;6639;50.956;4.242;2023-04-05T03:07:05;10.50;93.40
13148;DHT22;6639;50.956;4.242;2023-04-05T03:09:32;10.50;93.40
13148;DHT22;6639;50.956;4.242;2023-04-05T03:12:01;10.30;93.60
13148;DHT22;6639;50.956;4.242;2023-04-05T03:14:29;10.50;93.30
13148;DHT22;6639;50.956;4.242;2023-04-05T03:16:56;10.50;93.20
13148;DHT22;6639;50.956;4.242;2023-04-05T03:19:23;10.50;93.10
13148;DHT22;6639;50.956;4.242;2023-04-05T03:21:52;10.40;93.20
13148;DHT22;6639;50.956;4.242;2023-04-05T03:24:19;10.30;93.40
13148;DHT22;6639;50.956;4.242;2023-04-05T03:26:46;10.30;93.40
13148;DHT22;6639;50.956;4.242;2023-04-05T03:29:14;10.30;93.40
13148;DHT22;6639;50.956;4.242;2023-04-05T03:31:41;10.30;93.60
13148;DHT22;6639;50.956;4.242;2023-04-05T03:34:08;10.20;93.70
13148;DHT22;6639;50.956;4.242;2023-04-05T03:36:35;10.30;93.60
13148;DHT22;6639;50.956;4.242;2023-04-05T03:39:07;10.20;93.40
13148;DHT22;6639;50.956;4.242;2023-04-05T03:41:34;10.10;93.60
13148;DHT22;6639;50.956;4.242;2023-04-05T03:44:01;10.20;93.80
13148;DHT22;6639;50.956;4.242;2023-04-05T03:46:30;10.20;93.50
13148;DHT22;6639;50.956;4.242;2023-04-05T03:48:57;10.00;93.70
13148;DHT22;6639;50.956;4.242;2023-04-05T03:51:24;10.20;94.20
13148;DHT22;6639;50.956;4.242;2023-04-05T03:53:51;10.10;93.80
13148;DHT22;6639;50.956;4.242;2023-04-05T03:56:18;10.10;93.90
13148;DHT22;6639;50.956;4.242;2023-04-05T03:58:45;10.20;93.90
13148;DHT22;6639;50.956;4.242;2023-04-05T04:01:14;10.30;93.60
13148;DHT22;6639;50.956;4.242;2023-04-05T04:03:42;10.40;93.50
13148;DHT22;6639;50.956;4.242;2023-04-05T04:06:09;10.50;93.10
13148;DHT22;6639;50.956;4.242;2023-04-05T04:08:36;10.30;93.00
13148;DHT22;6639;50.956;4.242;2023-04-05T04:11:04;10.30;93.00
13148;DHT22;6639;50.956;4.242;2023-04-05T04:13:31;10.10;93.20
13148;DHT22;6639;50.956;4.242;2023-04-05T04:15:57;10.00;93.50
13148;DHT22;6639;50.956;4.242;2023-04-05T04:18:24;10.10;93.40
13148;DHT22;6639;50.956;4.242;2023-04-05T04:20:53;10.10;93.70
13148;DHT22;6639;50.956;4.242;2023-04-05T04:23:21;9.70;94.30
13148;DHT22;6639;50.956;4.242;2023-04-05T04:25:49;9.80;94.50
13148;DHT22;6639;50.956;4.242;2023-04-05T04:28:19;9.70;94.40
13148;DHT22;6639;50.956;4.242;2023-04-05T04:30:47;9.70;94.20
13148;DHT22;6639;50.956;4.242;2023-04-05T04:33:14;9.70;94.30
13148;DHT22;6639;50.956;4.242;2023-04-05T04:35:42;9.70;94.40
13148;DHT22;6639;50.956;4.242;2023-04-05T04:38:12;9.80;94.30
13148;DHT22;6639;50.956;4.242;2023-04-05T04:40:43;9.80;94.60
13148;DHT22;6639;50.956;4.242;2023-04-05T04:43:13;9.80;94.50
13148;DHT22;6639;50.956;4.242;2023-04-05T04:45:41;9.70;94.40
13148;DHT22;6639;50.956;4.242;2023-04-05T04:48:11;9.50;94.60
13148;DHT22;6639;50.956;4.242;2023-04-05T04:50:41;9.50;94.70
13148;DHT22;6639;50.956;4.242;2023-04-05T04:53:09;9.70;94.70
13148;DHT22;6639;50.956;4.242;2023-04-05T04:55:37;9.50;94.80
13148;DHT22;6639;50.956;4.242;2023-04-05T04:58:06;9.40;94.90
13148;DHT22;6639;50.956;4.242;2023-04-05T05:00:38;9.40;94.90
13148;DHT22;6639;50.956;4.242;2023-04-05T05:03:05;9.50;94.80
13148;DHT22;6639;50.956;4.242;2023-04-05T05:05:32;9.40;94.90
13148;DHT22;6639;50.956;4.242;2023-04-05T05:07:59;9.20;95.20
13148;DHT22;6639;50.956;4.242;2023-04-05T05:10:26;9.40;95.00
13148;DHT22;6639;50.956;4.242;2023-04-05T05:12:54;9.30;95.10
13148;DHT22;6639;50.956;4.242;2023-04-05T05:15:22;9.30;95.10
13148;DHT22;6639;50.956;4.242;2023-04-05T05:17:49;9.40;95.10
13148;DHT22;6639;50.956;4.242;2023-04-05T05:20:17;9.20;95.20
13148;DHT22;6639;50.956;4.242;2023-04-05T05:22:44;9.40;95.40
13148;DHT22;6639;50.956;4.242;2023-04-05T05:25:12;9.50;95.30
13148;DHT22;6639;50.956;4.242;2023-04-05T05:27:39;9.60;95.20
13148;DHT22;6639;50.956;4.242;2023-04-05T05:30:09;9.70;95.10
13148;DHT22;6639;50.956;4.242;2023-04-05T05:32:36;9.40;95.60
13148;DHT22;6639;50.956;4.242;2023-04-05T05:35:03;9.70;95.50
13148;DHT22;6639;50.956;4.242;2023-04-05T05:37:31;9.50;95.60
13148;DHT22;6639;50.956;4.242;2023-04-05T05:39:58;9.40;96.10
13148;DHT22;6639;50.956;4.242;2023-04-05T05:42:25;9.70;95.70
13148;DHT22;6639;50.956;4.242;2023-04-05T05:44:52;9.90;95.60
13148;DHT22;6639;50.956;4.242;2023-04-05T05:47:21;10.00;95.10
13148;DHT22;6639;50.956;4.242;2023-04-05T05:49:48;10.20;95.70
13148;DHT22;6639;50.956;4.242;2023-04-05T05:52:15;10.10;95.20
13148;DHT22;6639;50.956;4.242;2023-04-05T05:54:42;10.10;95.30
13148;DHT22;6639;50.956;4.242;2023-04-05T05:57:09;10.30;95.30
13148;DHT22;6639;50.956;4.242;2023-04-05T05:59:35;10.50;95.10
13148;DHT22;6639;50.956;4.242;2023-04-05T06:02:02;10.80;95.10
13148;DHT22;6639;50.956;4.242;2023-04-05T06:04:31;11.10;94.90
13148;DHT22;6639;50.956;4.242;2023-04-05T06:06:59;11.30;94.40
13148;DHT22;6639;50.956;4.242;2023-04-05T06:09:26;11.40;94.50
13148;DHT22;6639;50.956;4.242;2023-04-05T06:11:53;11.80;94.10
13148;DHT22;6639;50.956;4.242;2023-04-05T06:14:20;12.10;93.80
13148;DHT22;6639;50.956;4.242;2023-04-05T06:16:47;12.60;93.90
13148;DHT22;6639;50.956;4.242;2023-04-05T06:19:15;12.90;93.60
13148;DHT22;6639;50.956;4.242;2023-04-05T06:21:43;13.30;93.40
13148;DHT22;6639;50.956;4.242;2023-04-05T06:24:10;13.70;92.80
13148;DHT22;6639;50.956;4.242;2023-04-05T06:26:37;14.10;92.60
13148;DHT22;6639;50.956;4.242;2023-04-05T06:29:03;14.50;92.20
13148;DHT22;6639;50.956;4.242;2023-04-05T06:31:32;14.90;92.10
13148;DHT22;6639;50.956;4.242;2023-04-05T06:34:00;15.30;91.80
13148;DHT22;6639;50.956;4.242;2023-04-05T06:36:29;15.70;91.20
13148;DHT22;6639;50.956;4.242;2023-04-05T06:38:59;16.10;91.00
13148;DHT22;6639;50.956;4.242;2023-04-05T06:41:26;16.40;90.30
13148;DHT22;6639;50.956;4.242;2023-04-05T06:43:55;16.60;90.20
13148;DHT22;6639;50.956;4.242;2023-04-05T06:46:22;17.10;89.70
13148;DHT22;6639;50.956;4.242;2023-04-05T06:48:50;17.40;89.90
13148;DHT22;6639;50.956;4.242;2023-04-05T06:51:17;17.70;89.00
13148;DHT22;6639;50.956;4.242;2023-04-05T06:53:44;17.90;88.20
13148;DHT22;6639;50.956;4.242;2023-04-05T06:56:12;18.20;87.80
13148;DHT22;6639;50.956;4.242;2023-04-05T06:58:39;18.60;87.40
13148;DHT22;6639;50.956;4.242;2023-04-05T07:01:06;18.90;85.80
13148;DHT22;6639;50.956;4.242;2023-04-05T07:03:34;19.10;86.00
13148;DHT22;6639;50.956;4.242;2023-04-05T07:06:17;19.20;85.60
13148;DHT22;6639;50.956;4.242;2023-04-05T07:08:44;19.50;83.70
13148;DHT22;6639;50.956;4.242;2023-04-05T07:11:13;19.80;83.60
13148;DHT22;6639;50.956;4.242;2023-04-05T07:13:40;19.50;82.50
13148;DHT22;6639;50.956;4.242;2023-04-05T07:16:07;19.80;83.00
13148;DHT22;6639;50.956;4.242;2023-04-05T07:18:34;20.20;82.30
13148;DHT22;6639;50.956;4.242;2023-04-05T07:21:01;20.30;83.50
13148;DHT22;6639;50.956;4.242;2023-04-05T07:23:28;20.70;84.80
13148;DHT22;6639;50.956;4.242;2023-04-05T07:25:59;21.00;80.60
13148;DHT22;6639;50.956;4.242;2023-04-05T07:28:30;21.20;81.50
13148;DHT22;6639;50.956;4.242;2023-04-05T07:30:58;21.60;80.40
13148;DHT22;6639;50.956;4.242;2023-04-05T07:33:25;21.80;80.80
13148;DHT22;6639;50.956;4.242;2023-04-05T07:35:53;21.80;79.80
13148;DHT22;6639;50.956;4.242;2023-04-05T07:38:20;22.00;79.60
13148;DHT22;6639;50.956;4.242;2023-04-05T07:40:47;22.00;80.30
13148;DHT22;6639;50.956;4.242;2023-04-05T07:43:14;22.00;80.80
13148;DHT22;6639;50.956;4.242;2023-04-05T07:45:42;22.00;80.20
13148;DHT22;6639;50.956;4.242;2023-04-05T07:48:09;22.10;80.00
13148;DHT22;6639;50.956;4.242;2023-04-05T07:50:36;22.20;75.50
13148;DHT22;6639;50.956;4.242;2023-04-05T07:53:04;22.30;75.90
13148;DHT22;6639;50.956;4.242;2023-04-05T07:55:32;22.30;77.20
13148;DHT22;6639;50.956;4.242;2023-04-05T07:57:59;22.80;75.50
13148;DHT22;6639;50.956;4.242;2023-04-05T08:00:26;23.00;70.00
13148;DHT22;6639;50.956;4.242;2023-04-05T08:02:54;23.20;72.90
13148;DHT22;6639;50.956;4.242;2023-04-05T08:05:24;23.00;72.80
13148;DHT22;6639;50.956;4.242;2023-04-05T08:07:53;23.50;72.40
13148;DHT22;6639;50.956;4.242;2023-04-05T08:10:22;23.90;73.80
13148;DHT22;6639;50.956;4.242;2023-04-05T08:12:49;24.10;73.70
13148;DHT22;6639;50.956;4.242;2023-04-05T08:15:16;24.20;73.40
13148;DHT22;6639;50.956;4.242;2023-04-05T08:17:43;24.40;70.10
13148;DHT22;6639;50.956;4.242;2023-04-05T08:20:12;24.40;71.00
13148;DHT22;6639;50.956;4.242;2023-04-05T08:22:39;24.50;66.80
13148;DHT22;6639;50.956;4.242;2023-04-05T08:25:07;24.60;64.00
13148;DHT22;6639;50.956;4.242;2023-04-05T08:27:34;23.80;66.50
13148;DHT22;6639;50.956;4.242;2023-04-05T08:30:01;24.50;70.00
13148;DHT22;6639;50.956;4.242;2023-04-05T08:32:28;25.00;67.70
13148;DHT22;6639;50.956;4.242;2023-04-05T08:34:58;24.60;68.10
13148;DHT22;6639;50.956;4.242;2023-04-05T08:37:26;24.60;68.30
13148;DHT22;6639;50.956;4.242;2023-04-05T08:39:53;24.50;67.80
13148;DHT22;6639;50.956;4.242;2023-04-05T08:42:28;24.60;66.70
13148;DHT22;6639;50.956;4.242;2023-04-05T08:44:56;24.00;62.10
13148;DHT22;6639;50.956;4.242;2023-04-05T08:47:25;23.70;64.20
13148;DHT22;6639;50.956;4.242;2023-04-05T08:49:53;24.60;66.90
13148;DHT22;6639;50.956;4.242;2023-04-05T08:52:20;24.60;63.20
13148;DHT22;6639;50.956;4.242;2023-04-05T08:54:48;24.60;65.60
13148;DHT22;6639;50.956;4.242;2023-04-05T08:57:18;25.20;64.70
13148;DHT22;6639;50.956;4.242;2023-04-05T08:59:48;25.70;63.60
13148;DHT22;6639;50.956;4.242;2023-04-05T09:02:18;26.00;63.10
13148;DHT22;6639;50.956;4.242;2023-04-05T09:04:47;26.20;65.00
13148;DHT22;6639;50.956;4.242;2023-04-05T09:07:15;26.30;63.70
13148;DHT22;6639;50.956;4.242;2023-04-05T09:09:45;26.30;62.80
13148;DHT22;6639;50.956;4.242;2023-04-05T09:12:14;25.40;58.30
13148;DHT22;6639;50.956;4.242;2023-04-05T09:14:42;24.90;62.90
13148;DHT22;6639;50.956;4.242;2023-04-05T09:17:09;24.90;62.50
13148;DHT22;6639;50.956;4.242;2023-04-05T09:19:37;24.60;63.20
13148;DHT22;6639;50.956;4.242;2023-04-05T09:22:05;23.50;66.10
13148;DHT22;6639;50.956;4.242;2023-04-05T09:24:34;22.40;63.40
13148;DHT22;6639;50.956;4.242;2023-04-05T09:27:04;23.40;65.10
13148;DHT22;6639;50.956;4.242;2023-04-05T09:29:34;23.80;62.90
13148;DHT22;6639;50.956;4.242;2023-04-05T09:32:01;24.70;64.60
13148;DHT22;6639;50.956;4.242;2023-04-05T09:34:29;25.10;59.20
13148;DHT22;6639;50.956;4.242;2023-04-05T09:36:57;25.20;61.20
13148;DHT22;6639;50.956;4.242;2023-04-05T09:39:28;24.10;61.00
13148;DHT22;6639;50.956;4.242;2023-04-05T09:42:04;24.40;60.40
13148;DHT22;6639;50.956;4.242;2023-04-05T09:44:48;24.80;61.50
13148;DHT22;6639;50.956;4.242;2023-04-05T09:47:16;25.40;61.90
13148;DHT22;6639;50.956;4.242;2023-04-05T09:49:43;25.30;61.90
13148;DHT22;6639;50.956;4.242;2023-04-05T09:52:21;25.40;62.10
13148;DHT22;6639;50.956;4.242;2023-04-05T09:54:49;25.20;59.40
13148;DHT22;6639;50.956;4.242;2023-04-05T09:57:18;23.70;61.30
13148;DHT22;6639;50.956;4.242;2023-04-05T09:59:46;23.80;59.00
13148;DHT22;6639;50.956;4.242;2023-04-05T10:02:15;24.10;59.20
13148;DHT22;6639;50.956;4.242;2023-04-05T10:04:43;24.30;62.70
13148;DHT22;6639;50.956;4.242;2023-04-05T10:07:11;24.70;59.80
13148;DHT22;6639;50.956;4.242;2023-04-05T10:09:39;23.60;58.90
13148;DHT22;6639;50.956;4.242;2023-04-05T10:12:07;23.40;63.30
13148;DHT22;6639;50.956;4.242;2023-04-05T10:14:34;24.20;62.90
13148;DHT22;6639;50.956;4.242;2023-04-05T10:17:09;24.80;62.20
13148;DHT22;6639;50.956;4.242;2023-04-05T10:19:50;25.30;61.70
13148;DHT22;6639;50.956;4.242;2023-04-05T10:22:23;25.00;60.20
13148;DHT22;6639;50.956;4.242;2023-04-05T10:24:53;23.50;61.30
13148;DHT22;6639;50.956;4.242;2023-04-05T10:27:26;22.20;63.70
13148;DHT22;6639;50.956;4.242;2023-04-05T10:30:03;22.30;62.40
13148;DHT22;6639;50.956;4.242;2023-04-05T10:32:45;21.90;66.00
13148;DHT22;6639;50.956;4.242;2023-04-05T10:35:19;21.70;62.40
13148;DHT22;6639;50.956;4.242;2023-04-05T10:37:58;21.30;62.60
13148;DHT22;6639;50.956;4.242;2023-04-05T10:40:32;22.60;62.10
13148;DHT22;6639;50.956;4.242;2023-04-05T10:42:59;23.70;63.00
13148;DHT22;6639;50.956;4.242;2023-04-05T10:45:27;23.00;62.80
13148;DHT22;6639;50.956;4.242;2023-04-05T10:47:58;23.50;63.50
13148;DHT22;6639;50.956;4.242;2023-04-05T10:50:28;24.20;63.30
13148;DHT22;6639;50.956;4.242;2023-04-05T10:52:57;24.80;63.70
13148;DHT22;6639;50.956;4.242;2023-04-05T10:55:25;24.60;60.80
13148;DHT22;6639;50.956;4.242;2023-04-05T10:57:53;25.20;63.80
13148;DHT22;6639;50.956;4.242;2023-04-05T11:00:21;24.60;59.10
13148;DHT22;6639;50.956;4.242;2023-04-05T11:02:53;24.80;60.80
13148;DHT22;6639;50.956;4.242;2023-04-05T11:05:33;23.70;60.80
13148;DHT22;6639;50.956;4.242;2023-04-05T11:08:03;22.60;60.40
13148;DHT22;6639;50.956;4.242;2023-04-05T11:10:33;23.10;63.40
13148;DHT22;6639;50.956;4.242;2023-04-05T11:13:09;23.60;61.70
13148;DHT22;6639;50.956;4.242;2023-04-05T11:15:36;24.50;61.80
13148;DHT22;6639;50.956;4.242;2023-04-05T11:18:09;24.30;62.30
13148;DHT22;6639;50.956;4.242;2023-04-05T11:20:45;23.20;61.50
13148;DHT22;6639;50.956;4.242;2023-04-05T11:23:13;24.20;62.60
13148;DHT22;6639;50.956;4.242;2023-04-05T11:25:46;23.40;62.50
13148;DHT22;6639;50.956;4.242;2023-04-05T11:28:28;22.80;60.00
13148;DHT22;6639;50.956;4.242;2023-04-05T11:30:55;23.20;62.20
13148;DHT22;6639;50.956;4.242;2023-04-05T11:33:57;23.10;61.10
13148;DHT22;6639;50.956;4.242;2023-04-05T11:36:36;23.40;62.60
13148;DHT22;6639;50.956;4.242;2023-04-05T11:39:25;22.40;59.30
13148;DHT22;6639;50.956;4.242;2023-04-05T11:41:54;22.30;59.20
13148;DHT22;6639;50.956;4.242;2023-04-05T11:44:22;22.60;63.70
13148;DHT22;6639;50.956;4.242;2023-04-05T11:46:50;23.60;63.70
13148;DHT22;6639;50.956;4.242;2023-04-05T11:49:20;24.40;62.60
13148;DHT22;6639;50.956;4.242;2023-04-05T11:51:49;24.10;61.40
13148;DHT22;6639;50.956;4.242;2023-04-05T11:54:28;23.80;64.40
13148;DHT22;6639;50.956;4.242;2023-04-05T11:56:55;23.80;61.50
13148;DHT22;6639;50.956;4.242;2023-04-05T11:59:28;23.10;60.90
13148;DHT22;6639;50.956;4.242;2023-04-05T12:01:59;22.90;65.00
13148;DHT22;6639;50.956;4.242;2023-04-05T12:04:25;22.50;63.20
13148;DHT22;6639;50.956;4.242;2023-04-05T12:07:15;23.50;64.30
13148;DHT22;6639;50.956;4.242;2023-04-05T12:10:04;23.40;61.80
13148;DHT22;6639;50.956;4.242;2023-04-05T12:12:36;22.80;61.00
13148;DHT22;6639;50.956;4.242;2023-04-05T12:15:05;21.00;64.00
13148;DHT22;6639;50.956;4.242;2023-04-05T12:17:44;22.30;65.40
13148;DHT22;6639;50.956;4.242;2023-04-05T12:20:13;23.10;63.10
13148;DHT22;6639;50.956;4.242;2023-04-05T12:22:43;22.30;62.20
13148;DHT22;6639;50.956;4.242;2023-04-05T12:25:10;21.10;62.40
13148;DHT22;6639;50.956;4.242;2023-04-05T12:27:37;20.70;62.60
13148;DHT22;6639;50.956;4.242;2023-04-05T12:30:10;21.10;63.10
13148;DHT22;6639;50.956;4.242;2023-04-05T12:32:43;21.20;64.20
13148;DHT22;6639;50.956;4.242;2023-04-05T12:35:11;20.80;62.50
13148;DHT22;6639;50.956;4.242;2023-04-05T12:37:40;20.60;61.90
13148;DHT22;6639;50.956;4.242;2023-04-05T12:40:08;19.80;61.60
13148;DHT22;6639;50.956;4.242;2023-04-05T12:42:36;19.20;65.60
13148;DHT22;6639;50.956;4.242;2023-04-05T12:45:06;19.50;63.60
13148;DHT22;6639;50.956;4.242;2023-04-05T12:47:33;20.00;66.70
13148;DHT22;6639;50.956;4.242;2023-04-05T12:50:11;20.20;63.30
13148;DHT22;6639;50.956;4.242;2023-04-05T12:52:51;20.20;61.60
13148;DHT22;6639;50.956;4.242;2023-04-05T12:55:18;19.20;66.80
13148;DHT22;6639;50.956;4.242;2023-04-05T12:57:49;19.10;67.00
13148;DHT22;6639;50.956;4.242;2023-04-05T13:00:17;18.80;65.50
13148;DHT22;6639;50.956;4.242;2023-04-05T13:02:48;18.70;63.20
13148;DHT22;6639;50.956;4.242;2023-04-05T13:05:21;19.00;66.50
13148;DHT22;6639;50.956;4.242;2023-04-05T13:07:48;19.80;67.00
13148;DHT22;6639;50.956;4.242;2023-04-05T13:10:17;20.40;64.60
13148;DHT22;6639;50.956;4.242;2023-04-05T13:12:44;20.90;63.10
13148;DHT22;6639;50.956;4.242;2023-04-05T13:15:12;20.40;67.60
13148;DHT22;6639;50.956;4.242;2023-04-05T13:17:40;20.10;66.30
13148;DHT22;6639;50.956;4.242;2023-04-05T13:20:11;20.60;67.20
13148;DHT22;6639;50.956;4.242;2023-04-05T13:22:42;19.40;61.10
13148;DHT22;6639;50.956;4.242;2023-04-05T13:25:09;19.30;64.90
13148;DHT22;6639;50.956;4.242;2023-04-05T13:27:37;19.50;65.30
13148;DHT22;6639;50.956;4.242;2023-04-05T13:30:05;19.30;66.60
13148;DHT22;6639;50.956;4.242;2023-04-05T13:32:33;20.10;64.20
13148;DHT22;6639;50.956;4.242;2023-04-05T13:34:59;20.40;66.00
13148;DHT22;6639;50.956;4.242;2023-04-05T13:37:27;21.00;64.00
13148;DHT22;6639;50.956;4.242;2023-04-05T13:39:55;21.10;61.30
13148;DHT22;6639;50.956;4.242;2023-04-05T13:42:22;21.10;65.10
13148;DHT22;6639;50.956;4.242;2023-04-05T13:44:51;21.50;62.60
13148;DHT22;6639;50.956;4.242;2023-04-05T13:47:18;21.60;63.40
13148;DHT22;6639;50.956;4.242;2023-04-05T13:49:45;21.50;61.60
13148;DHT22;6639;50.956;4.242;2023-04-05T13:52:12;20.70;60.70
13148;DHT22;6639;50.956;4.242;2023-04-05T13:54:39;21.20;61.00
13148;DHT22;6639;50.956;4.242;2023-04-05T13:57:05;21.80;63.10
13148;DHT22;6639;50.956;4.242;2023-04-05T13:59:33;21.70;63.10
13148;DHT22;6639;50.956;4.242;2023-04-05T14:02:01;21.80;64.80
13148;DHT22;6639;50.956;4.242;2023-04-05T14:04:28;22.20;61.10
13148;DHT22;6639;50.956;4.242;2023-04-05T14:06:55;21.90;64.00
13148;DHT22;6639;50.956;4.242;2023-04-05T14:09:22;22.20;63.20
13148;DHT22;6639;50.956;4.242;2023-04-05T14:11:49;22.20;59.80
13148;DHT22;6639;50.956;4.242;2023-04-05T14:14:31;21.80;61.90
13148;DHT22;6639;50.956;4.242;2023-04-05T14:17:03;22.20;62.00
13148;DHT22;6639;50.956;4.242;2023-04-05T14:19:33;22.20;61.80
13148;DHT22;6639;50.956;4.242;2023-04-05T14:22:00;22.80;62.90
13148;DHT22;6639;50.956;4.242;2023-04-05T14:24:26;23.20;61.10
13148;DHT22;6639;50.956;4.242;2023-04-05T14:26:53;23.30;63.40
13148;DHT22;6639;50.956;4.242;2023-04-05T14:29:21;23.40;62.40
13148;DHT22;6639;50.956;4.242;2023-04-05T14:31:48;23.40;62.40
13148;DHT22;6639;50.956;4.242;2023-04-05T14:34:17;23.80;62.40
13148;DHT22;6639;50.956;4.242;2023-04-05T14:36:45;23.80;62.10
13148;DHT22;6639;50.956;4.242;2023-04-05T14:39:12;23.80;62.60
13148;DHT22;6639;50.956;4.242;2023-04-05T14:41:40;23.50;62.50
13148;DHT22;6639;50.956;4.242;2023-04-05T14:44:07;22.80;59.60
13148;DHT22;6639;50.956;4.242;2023-04-05T14:46:34;21.90;60.80
13148;DHT22;6639;50.956;4.242;2023-04-05T14:49:01;21.90;63.10
13148;DHT22;6639;50.956;4.242;2023-04-05T14:51:30;22.60;63.40
13148;DHT22;6639;50.956;4.242;2023-04-05T14:53:57;22.30;63.20
13148;DHT22;6639;50.956;4.242;2023-04-05T14:56:24;23.10;62.10
13148;DHT22;6639;50.956;4.242;2023-04-05T14:58:51;23.70;62.80
13148;DHT22;6639;50.956;4.242;2023-04-05T15:01:18;22.40;60.90
13148;DHT22;6639;50.956;4.242;2023-04-05T15:03:45;23.10;63.40
13148;DHT22;6639;50.956;4.242;2023-04-05T15:06:15;22.60;62.00
13148;DHT22;6639;50.956;4.242;2023-04-05T15:09:03;23.00;60.50
13148;DHT22;6639;50.956;4.242;2023-04-05T15:11:35;22.10;60.10
13148;DHT22;6639;50.956;4.242;2023-04-05T15:14:04;23.00;62.70
13148;DHT22;6639;50.956;4.242;2023-04-05T15:16:32;22.70;61.30
13148;DHT22;6639;50.956;4.242;2023-04-05T15:18:59;22.70;64.00
13148;DHT22;6639;50.956;4.242;2023-04-05T15:21:27;22.90;60.40
13148;DHT22;6639;50.956;4.242;2023-04-05T15:23:54;23.20;60.70
13148;DHT22;6639;50.956;4.242;2023-04-05T15:26:24;22.50;62.00
13148;DHT22;6639;50.956;4.242;2023-04-05T15:28:52;22.30;61.80
13148;DHT22;6639;50.956;4.242;2023-04-05T15:31:19;21.90;59.40
13148;DHT22;6639;50.956;4.242;2023-04-05T15:33:46;22.40;61.30
13148;DHT22;6639;50.956;4.242;2023-04-05T15:36:13;22.70;60.50
13148;DHT22;6639;50.956;4.242;2023-04-05T15:38:41;23.20;60.80
13148;DHT22;6639;50.956;4.242;2023-04-05T15:41:08;22.50;59.10
13148;DHT22;6639;50.956;4.242;2023-04-05T15:43:37;21.70;59.00
13148;DHT22;6639;50.956;4.242;2023-04-05T15:46:04;21.40;59.90
13148;DHT22;6639;50.956;4.242;2023-04-05T15:48:32;21.90;60.10
13148;DHT22;6639;50.956;4.242;2023-04-05T15:50:59;21.20;60.00
13148;DHT22;6639;50.956;4.242;2023-04-05T15:53:26;21.00;60.70
13148;DHT22;6639;50.956;4.242;2023-04-05T15:55:53;21.00;61.40
13148;DHT22;6639;50.956;4.242;2023-04-05T15:58:22;20.10;61.70
13148;DHT22;6639;50.956;4.242;2023-04-05T16:00:52;20.20;62.80
13148;DHT22;6639;50.956;4.242;2023-04-05T16:03:19;20.80;63.20